sensor_id;sensor_type;location;lat;lon;timestamp;P1;durP1;ratioP1;P2;durP2;ratioP2
24407;SDS011;12542;50.924;4.516;2022-10-04T00:01:31;15.00;;;7.70;;
24407;SDS011;12542;50.924;4.516;2022-10-04T00:04:28;15.02;;;7.90;;
24407;SDS011;12542;50.924;4.516;2022-10-04T00:09:33;11.55;;;7.20;;
24407;SDS011;12542;50.924;4.516;2022-10-04T00:12:19;16.23;;;7.18;;
24407;SDS011;12542;50.924;4.516;2022-10-04T00:14:49;12.32;;;7.45;;
24407;SDS011;12542;50.924;4.516;2022-10-04T00:17:24;15.18;;;7.38;;
24407;SDS011;12542;50.924;4.516;2022-10-04T00:19:53;11.45;;;6.75;;
24407;SDS011;12542;50.924;4.516;2022-10-04T00:22:26;14.00;;;7.50;;
24407;SDS011;12542;50.924;4.516;2022-10-04T00:27:33;13.73;;;6.50;;
24407;SDS011;12542;50.924;4.516;2022-10-04T00:35:45;13.23;;;6.57;;
24407;SDS011;12542;50.924;4.516;2022-10-04T00:40:25;15.65;;;8.02;;
24407;SDS011;12542;50.924;4.516;2022-10-04T00:42:58;16.25;;;8.15;;
24407;SDS011;12542;50.924;4.516;2022-10-04T00:45:42;12.95;;;7.28;;
24407;SDS011;12542;50.924;4.516;2022-10-04T00:48:55;12.80;;;7.18;;
24407;SDS011;12542;50.924;4.516;2022-10-04T00:51:20;17.15;;;8.48;;
24407;SDS011;12542;50.924;4.516;2022-10-04T00:53:53;12.68;;;6.75;;
24407;SDS011;12542;50.924;4.516;2022-10-04T00:59:11;12.23;;;7.63;;
24407;SDS011;12542;50.924;4.516;2022-10-04T01:01:38;14.02;;;8.48;;
24407;SDS011;12542;50.924;4.516;2022-10-04T01:04:05;16.65;;;7.43;;
24407;SDS011;12542;50.924;4.516;2022-10-04T01:06:40;13.50;;;7.95;;
24407;SDS011;12542;50.924;4.516;2022-10-04T01:09:07;16.13;;;8.65;;
24407;SDS011;12542;50.924;4.516;2022-10-04T01:11:37;16.48;;;8.25;;
24407;SDS011;12542;50.924;4.516;2022-10-04T01:14:10;16.52;;;7.65;;
24407;SDS011;12542;50.924;4.516;2022-10-04T01:16:44;12.75;;;7.40;;
24407;SDS011;12542;50.924;4.516;2022-10-04T01:21:58;15.40;;;7.85;;
24407;SDS011;12542;50.924;4.516;2022-10-04T01:24:32;15.32;;;7.18;;
24407;SDS011;12542;50.924;4.516;2022-10-04T01:27:06;10.80;;;6.78;;
24407;SDS011;12542;50.924;4.516;2022-10-04T01:30:14;14.13;;;7.78;;
24407;SDS011;12542;50.924;4.516;2022-10-04T01:32:41;15.18;;;7.10;;
24407;SDS011;12542;50.924;4.516;2022-10-04T01:35:08;18.88;;;7.07;;
24407;SDS011;12542;50.924;4.516;2022-10-04T01:37:37;15.88;;;7.50;;
24407;SDS011;12542;50.924;4.516;2022-10-04T01:40:04;14.13;;;7.03;;
24407;SDS011;12542;50.924;4.516;2022-10-04T01:42:35;14.82;;;6.90;;
24407;SDS011;12542;50.924;4.516;2022-10-04T01:45:14;12.05;;;7.55;;
24407;SDS011;12542;50.924;4.516;2022-10-04T01:48:12;11.82;;;7.00;;
24407;SDS011;12542;50.924;4.516;2022-10-04T01:50:42;14.20;;;6.78;;
24407;SDS011;12542;50.924;4.516;2022-10-04T01:53:23;13.98;;;6.60;;
24407;SDS011;12542;50.924;4.516;2022-10-04T01:55:53;13.32;;;7.07;;
24407;SDS011;12542;50.924;4.516;2022-10-04T01:58:29;13.65;;;7.50;;
24407;SDS011;12542;50.924;4.516;2022-10-04T02:01:08;11.60;;;6.00;;
24407;SDS011;12542;50.924;4.516;2022-10-04T02:03:56;18.02;;;7.57;;
24407;SDS011;12542;50.924;4.516;2022-10-04T02:06:25;11.57;;;5.78;;
24407;SDS011;12542;50.924;4.516;2022-10-04T02:08:53;10.05;;;6.32;;
24407;SDS011;12542;50.924;4.516;2022-10-04T02:11:22;14.70;;;7.10;;
24407;SDS011;12542;50.924;4.516;2022-10-04T02:13:50;14.70;;;6.57;;
24407;SDS011;12542;50.924;4.516;2022-10-04T02:16:18;12.43;;;6.28;;
24407;SDS011;12542;50.924;4.516;2022-10-04T02:18:46;10.02;;;6.00;;
24407;SDS011;12542;50.924;4.516;2022-10-04T02:21:14;13.27;;;6.43;;
24407;SDS011;12542;50.924;4.516;2022-10-04T02:23:43;12.13;;;6.78;;
24407;SDS011;12542;50.924;4.516;2022-10-04T02:26:10;20.25;;;7.32;;
24407;SDS011;12542;50.924;4.516;2022-10-04T02:28:36;15.68;;;6.65;;
24407;SDS011;12542;50.924;4.516;2022-10-04T02:31:03;14.10;;;7.03;;
24407;SDS011;12542;50.924;4.516;2022-10-04T02:33:49;12.45;;;7.30;;
24407;SDS011;12542;50.924;4.516;2022-10-04T02:36:16;11.63;;;6.35;;
24407;SDS011;12542;50.924;4.516;2022-10-04T02:39:02;11.88;;;6.63;;
24407;SDS011;12542;50.924;4.516;2022-10-04T02:41:48;11.60;;;7.20;;
24407;SDS011;12542;50.924;4.516;2022-10-04T02:47:02;14.88;;;6.50;;
24407;SDS011;12542;50.924;4.516;2022-10-04T02:55:01;11.68;;;7.03;;
24407;SDS011;12542;50.924;4.516;2022-10-04T02:57:34;14.45;;;7.03;;
24407;SDS011;12542;50.924;4.516;2022-10-04T03:00:02;13.82;;;6.63;;
24407;SDS011;12542;50.924;4.516;2022-10-04T03:02:41;12.35;;;7.22;;
24407;SDS011;12542;50.924;4.516;2022-10-04T03:05:43;15.85;;;7.85;;
24407;SDS011;12542;50.924;4.516;2022-10-04T03:08:16;15.65;;;8.45;;
24407;SDS011;12542;50.924;4.516;2022-10-04T03:10:42;14.70;;;7.70;;
24407;SDS011;12542;50.924;4.516;2022-10-04T03:13:09;17.45;;;7.97;;
24407;SDS011;12542;50.924;4.516;2022-10-04T03:15:36;15.30;;;8.35;;
24407;SDS011;12542;50.924;4.516;2022-10-04T03:18:03;17.38;;;8.70;;
24407;SDS011;12542;50.924;4.516;2022-10-04T03:20:29;18.80;;;8.55;;
24407;SDS011;12542;50.924;4.516;2022-10-04T03:22:55;17.98;;;9.98;;
24407;SDS011;12542;50.924;4.516;2022-10-04T03:25:26;33.08;;;10.65;;
24407;SDS011;12542;50.924;4.516;2022-10-04T03:27:55;13.57;;;8.90;;
24407;SDS011;12542;50.924;4.516;2022-10-04T03:30:25;17.60;;;10.98;;
24407;SDS011;12542;50.924;4.516;2022-10-04T03:32:51;19.88;;;10.27;;
24407;SDS011;12542;50.924;4.516;2022-10-04T03:35:33;17.60;;;9.43;;
24407;SDS011;12542;50.924;4.516;2022-10-04T03:38:04;19.02;;;10.45;;
24407;SDS011;12542;50.924;4.516;2022-10-04T03:40:33;16.08;;;10.98;;
24407;SDS011;12542;50.924;4.516;2022-10-04T03:43:04;18.40;;;10.07;;
24407;SDS011;12542;50.924;4.516;2022-10-04T03:45:33;24.95;;;10.70;;
24407;SDS011;12542;50.924;4.516;2022-10-04T03:48:03;19.98;;;10.98;;
24407;SDS011;12542;50.924;4.516;2022-10-04T03:50:33;20.90;;;10.93;;
24407;SDS011;12542;50.924;4.516;2022-10-04T03:53:08;20.02;;;10.57;;
24407;SDS011;12542;50.924;4.516;2022-10-04T03:55:57;21.65;;;10.30;;
24407;SDS011;12542;50.924;4.516;2022-10-04T03:58:25;18.30;;;10.07;;
24407;SDS011;12542;50.924;4.516;2022-10-04T04:03:46;17.98;;;10.32;;
24407;SDS011;12542;50.924;4.516;2022-10-04T04:06:46;22.27;;;9.73;;
24407;SDS011;12542;50.924;4.516;2022-10-04T04:09:41;19.77;;;9.00;;
24407;SDS011;12542;50.924;4.516;2022-10-04T04:12:22;17.73;;;9.60;;
24407;SDS011;12542;50.924;4.516;2022-10-04T04:15:12;18.30;;;9.45;;
24407;SDS011;12542;50.924;4.516;2022-10-04T04:17:45;17.77;;;8.93;;
24407;SDS011;12542;50.924;4.516;2022-10-04T04:20:18;21.50;;;10.02;;
24407;SDS011;12542;50.924;4.516;2022-10-04T04:22:54;13.98;;;9.23;;
24407;SDS011;12542;50.924;4.516;2022-10-04T04:25:46;17.80;;;9.27;;
24407;SDS011;12542;50.924;4.516;2022-10-04T04:28:20;20.20;;;9.73;;
24407;SDS011;12542;50.924;4.516;2022-10-04T04:30:50;16.70;;;9.30;;
24407;SDS011;12542;50.924;4.516;2022-10-04T04:36:24;18.30;;;8.70;;
24407;SDS011;12542;50.924;4.516;2022-10-04T04:38:51;15.38;;;8.20;;
24407;SDS011;12542;50.924;4.516;2022-10-04T04:41:36;19.87;;;8.90;;
24407;SDS011;12542;50.924;4.516;2022-10-04T04:44:02;18.75;;;9.68;;
24407;SDS011;12542;50.924;4.516;2022-10-04T04:49:03;17.77;;;8.82;;
24407;SDS011;12542;50.924;4.516;2022-10-04T04:51:31;20.17;;;8.73;;
24407;SDS011;12542;50.924;4.516;2022-10-04T04:53:58;18.05;;;8.73;;
24407;SDS011;12542;50.924;4.516;2022-10-04T04:56:27;27.25;;;12.90;;
24407;SDS011;12542;50.924;4.516;2022-10-04T04:58:56;20.38;;;8.95;;
24407;SDS011;12542;50.924;4.516;2022-10-04T05:01:40;15.48;;;7.78;;
24407;SDS011;12542;50.924;4.516;2022-10-04T05:06:35;23.80;;;8.43;;
24407;SDS011;12542;50.924;4.516;2022-10-04T05:09:03;17.15;;;7.85;;
24407;SDS011;12542;50.924;4.516;2022-10-04T05:11:32;23.05;;;9.48;;
24407;SDS011;12542;50.924;4.516;2022-10-04T05:14:04;15.43;;;8.68;;
24407;SDS011;12542;50.924;4.516;2022-10-04T05:19:18;16.58;;;7.60;;
24407;SDS011;12542;50.924;4.516;2022-10-04T05:21:49;19.15;;;7.47;;
24407;SDS011;12542;50.924;4.516;2022-10-04T05:24:21;16.70;;;7.97;;
24407;SDS011;12542;50.924;4.516;2022-10-04T05:26:51;20.08;;;8.18;;
24407;SDS011;12542;50.924;4.516;2022-10-04T05:29:22;15.25;;;6.78;;
24407;SDS011;12542;50.924;4.516;2022-10-04T05:32:14;14.32;;;7.03;;
24407;SDS011;12542;50.924;4.516;2022-10-04T05:34:59;17.23;;;7.55;;
24407;SDS011;12542;50.924;4.516;2022-10-04T05:40:26;21.45;;;7.32;;
24407;SDS011;12542;50.924;4.516;2022-10-04T05:42:57;13.23;;;6.10;;
24407;SDS011;12542;50.924;4.516;2022-10-04T05:45:27;16.27;;;7.10;;
24407;SDS011;12542;50.924;4.516;2022-10-04T05:47:54;13.13;;;7.68;;
24407;SDS011;12542;50.924;4.516;2022-10-04T05:58:20;17.42;;;7.68;;
24407;SDS011;12542;50.924;4.516;2022-10-04T06:03:48;16.25;;;6.45;;
24407;SDS011;12542;50.924;4.516;2022-10-04T06:06:22;13.80;;;6.05;;
24407;SDS011;12542;50.924;4.516;2022-10-04T06:09:00;16.00;;;7.35;;
24407;SDS011;12542;50.924;4.516;2022-10-04T06:22:28;13.07;;;6.50;;
24407;SDS011;12542;50.924;4.516;2022-10-04T06:27:26;11.82;;;5.90;;
24407;SDS011;12542;50.924;4.516;2022-10-04T06:30:06;12.65;;;5.68;;
24407;SDS011;12542;50.924;4.516;2022-10-04T06:41:11;10.70;;;5.28;;
24407;SDS011;12542;50.924;4.516;2022-10-04T06:46:39;10.38;;;4.22;;
24407;SDS011;12542;50.924;4.516;2022-10-04T06:57:32;9.52;;;4.28;;
24407;SDS011;12542;50.924;4.516;2022-10-04T07:03:09;10.63;;;4.13;;
24407;SDS011;12542;50.924;4.516;2022-10-04T07:05:53;12.30;;;4.50;;
24407;SDS011;12542;50.924;4.516;2022-10-04T07:11:25;11.10;;;4.47;;
24407;SDS011;12542;50.924;4.516;2022-10-04T07:16:47;11.85;;;4.03;;
24407;SDS011;12542;50.924;4.516;2022-10-04T07:21:52;10.18;;;3.80;;
24407;SDS011;12542;50.924;4.516;2022-10-04T07:24:29;12.38;;;3.67;;
24407;SDS011;12542;50.924;4.516;2022-10-04T07:27:20;10.05;;;3.65;;
24407;SDS011;12542;50.924;4.516;2022-10-04T07:29:51;11.23;;;4.00;;
24407;SDS011;12542;50.924;4.516;2022-10-04T07:32:28;9.35;;;3.97;;
24407;SDS011;12542;50.924;4.516;2022-10-04T07:40:26;9.38;;;3.88;;
24407;SDS011;12542;50.924;4.516;2022-10-04T07:43:39;8.38;;;4.05;;
24407;SDS011;12542;50.924;4.516;2022-10-04T07:46:12;10.75;;;4.30;;
24407;SDS011;12542;50.924;4.516;2022-10-04T07:48:44;8.50;;;4.32;;
24407;SDS011;12542;50.924;4.516;2022-10-04T07:51:18;9.10;;;3.72;;
24407;SDS011;12542;50.924;4.516;2022-10-04T07:53:54;12.00;;;4.13;;
24407;SDS011;12542;50.924;4.516;2022-10-04T07:56:29;11.73;;;3.53;;
24407;SDS011;12542;50.924;4.516;2022-10-04T07:59:51;10.25;;;4.03;;
24407;SDS011;12542;50.924;4.516;2022-10-04T08:08:02;6.75;;;3.78;;
24407;SDS011;12542;50.924;4.516;2022-10-04T08:10:54;5.70;;;3.22;;
24407;SDS011;12542;50.924;4.516;2022-10-04T08:13:43;9.38;;;3.22;;
24407;SDS011;12542;50.924;4.516;2022-10-04T08:21:59;9.05;;;3.45;;
24407;SDS011;12542;50.924;4.516;2022-10-04T08:27:25;6.45;;;2.90;;
24407;SDS011;12542;50.924;4.516;2022-10-04T08:35:35;8.95;;;3.80;;
24407;SDS011;12542;50.924;4.516;2022-10-04T08:46:07;10.88;;;4.20;;
24407;SDS011;12542;50.924;4.516;2022-10-04T08:54:42;9.95;;;4.10;;
24407;SDS011;12542;50.924;4.516;2022-10-04T09:16:46;14.25;;;4.40;;
24407;SDS011;12542;50.924;4.516;2022-10-04T09:19:28;8.25;;;4.25;;
24407;SDS011;12542;50.924;4.516;2022-10-04T09:22:21;10.32;;;4.22;;
24407;SDS011;12542;50.924;4.516;2022-10-04T09:30:36;8.10;;;3.17;;
24407;SDS011;12542;50.924;4.516;2022-10-04T09:33:22;9.27;;;3.58;;
24407;SDS011;12542;50.924;4.516;2022-10-04T09:39:03;6.75;;;3.70;;
24407;SDS011;12542;50.924;4.516;2022-10-04T09:47:54;9.52;;;3.40;;
24407;SDS011;12542;50.924;4.516;2022-10-04T09:50:40;7.30;;;2.88;;
24407;SDS011;12542;50.924;4.516;2022-10-04T09:53:24;9.00;;;3.05;;
24407;SDS011;12542;50.924;4.516;2022-10-04T09:58:47;11.27;;;3.92;;
24407;SDS011;12542;50.924;4.516;2022-10-04T10:09:57;7.60;;;3.13;;
24407;SDS011;12542;50.924;4.516;2022-10-04T10:16:20;6.18;;;2.83;;
24407;SDS011;12542;50.924;4.516;2022-10-04T10:22:14;7.25;;;3.00;;
24407;SDS011;12542;50.924;4.516;2022-10-04T10:30:07;8.48;;;2.90;;
24407;SDS011;12542;50.924;4.516;2022-10-04T10:38:42;12.90;;;3.72;;
24407;SDS011;12542;50.924;4.516;2022-10-04T10:44:26;9.00;;;3.47;;
24407;SDS011;12542;50.924;4.516;2022-10-04T10:50:11;7.82;;;3.10;;
24407;SDS011;12542;50.924;4.516;2022-10-04T11:07:53;7.10;;;2.55;;
24407;SDS011;12542;50.924;4.516;2022-10-04T11:18:34;7.70;;;2.58;;
24407;SDS011;12542;50.924;4.516;2022-10-04T11:32:21;5.85;;;2.63;;
24407;SDS011;12542;50.924;4.516;2022-10-04T11:40:52;7.78;;;2.65;;
24407;SDS011;12542;50.924;4.516;2022-10-04T11:46:54;5.03;;;2.10;;
24407;SDS011;12542;50.924;4.516;2022-10-04T11:55:51;7.63;;;2.45;;
24407;SDS011;12542;50.924;4.516;2022-10-04T11:57:58;7.40;;;2.33;;
24407;SDS011;12542;50.924;4.516;2022-10-04T12:00:41;4.90;;;1.90;;
24407;SDS011;12542;50.924;4.516;2022-10-04T12:23:56;5.43;;;1.95;;
24407;SDS011;12542;50.924;4.516;2022-10-04T12:26:31;5.47;;;1.73;;
24407;SDS011;12542;50.924;4.516;2022-10-04T12:32:10;7.03;;;2.00;;
24407;SDS011;12542;50.924;4.516;2022-10-04T12:37:19;5.05;;;1.77;;
24407;SDS011;12542;50.924;4.516;2022-10-04T12:43:20;4.45;;;1.77;;
24407;SDS011;12542;50.924;4.516;2022-10-04T12:57:13;6.20;;;2.35;;
24407;SDS011;12542;50.924;4.516;2022-10-04T12:59:47;6.03;;;2.47;;
24407;SDS011;12542;50.924;4.516;2022-10-04T13:30:03;6.57;;;2.70;;
24407;SDS011;12542;50.924;4.516;2022-10-04T13:41:57;7.68;;;2.88;;
24407;SDS011;12542;50.924;4.516;2022-10-04T13:46:47;6.00;;;2.78;;
24407;SDS011;12542;50.924;4.516;2022-10-04T13:49:41;8.35;;;2.67;;
24407;SDS011;12542;50.924;4.516;2022-10-04T13:52:25;7.80;;;2.80;;
24407;SDS011;12542;50.924;4.516;2022-10-04T14:01:12;5.90;;;2.38;;
24407;SDS011;12542;50.924;4.516;2022-10-04T14:06:37;4.88;;;2.53;;
24407;SDS011;12542;50.924;4.516;2022-10-04T14:09:19;9.70;;;3.17;;
24407;SDS011;12542;50.924;4.516;2022-10-04T14:14:41;8.50;;;2.28;;
24407;SDS011;12542;50.924;4.516;2022-10-04T14:17:23;3.83;;;2.22;;
24407;SDS011;12542;50.924;4.516;2022-10-04T14:28:56;5.72;;;2.47;;
24407;SDS011;12542;50.924;4.516;2022-10-04T14:46:18;4.25;;;2.45;;
24407;SDS011;12542;50.924;4.516;2022-10-04T14:49:13;6.00;;;2.80;;
24407;SDS011;12542;50.924;4.516;2022-10-04T14:57:20;9.20;;;2.40;;
24407;SDS011;12542;50.924;4.516;2022-10-04T15:08:36;5.90;;;2.75;;
24407;SDS011;12542;50.924;4.516;2022-10-04T15:11:33;8.77;;;2.60;;
24407;SDS011;12542;50.924;4.516;2022-10-04T15:14:21;4.82;;;2.38;;
24407;SDS011;12542;50.924;4.516;2022-10-04T15:17:03;8.15;;;2.33;;
24407;SDS011;12542;50.924;4.516;2022-10-04T15:22:50;8.98;;;2.33;;
24407;SDS011;12542;50.924;4.516;2022-10-04T15:25:40;9.63;;;2.38;;
24407;SDS011;12542;50.924;4.516;2022-10-04T15:42:53;4.47;;;2.22;;
24407;SDS011;12542;50.924;4.516;2022-10-04T16:04:35;4.45;;;2.30;;
24407;SDS011;12542;50.924;4.516;2022-10-04T16:12:20;7.13;;;2.90;;
24407;SDS011;12542;50.924;4.516;2022-10-04T16:20:31;4.40;;;2.42;;
24407;SDS011;12542;50.924;4.516;2022-10-04T16:25:52;8.73;;;2.72;;
24407;SDS011;12542;50.924;4.516;2022-10-04T16:31:12;7.88;;;2.63;;
24407;SDS011;12542;50.924;4.516;2022-10-04T16:34:07;10.65;;;3.00;;
24407;SDS011;12542;50.924;4.516;2022-10-04T16:39:47;6.53;;;2.67;;
24407;SDS011;12542;50.924;4.516;2022-10-04T16:42:48;4.60;;;2.92;;
24407;SDS011;12542;50.924;4.516;2022-10-04T16:45:30;6.00;;;2.80;;
24407;SDS011;12542;50.924;4.516;2022-10-04T16:59:00;8.95;;;3.33;;
24407;SDS011;12542;50.924;4.516;2022-10-04T17:04:36;7.95;;;3.05;;
24407;SDS011;12542;50.924;4.516;2022-10-04T17:09:47;5.63;;;3.67;;
24407;SDS011;12542;50.924;4.516;2022-10-04T17:22:00;7.60;;;4.05;;
24407;SDS011;12542;50.924;4.516;2022-10-04T17:24:35;9.40;;;3.72;;
24407;SDS011;12542;50.924;4.516;2022-10-04T17:30:16;7.60;;;3.13;;
24407;SDS011;12542;50.924;4.516;2022-10-04T17:32:58;7.95;;;3.60;;
24407;SDS011;12542;50.924;4.516;2022-10-04T17:38:35;12.02;;;3.83;;
24407;SDS011;12542;50.924;4.516;2022-10-04T17:46:50;9.60;;;4.55;;
24407;SDS011;12542;50.924;4.516;2022-10-04T17:49:26;7.70;;;4.28;;
24407;SDS011;12542;50.924;4.516;2022-10-04T17:52:26;7.40;;;4.07;;
24407;SDS011;12542;50.924;4.516;2022-10-04T17:55:17;7.03;;;4.20;;
24407;SDS011;12542;50.924;4.516;2022-10-04T17:58:03;8.77;;;4.43;;
24407;SDS011;12542;50.924;4.516;2022-10-04T18:00:51;16.00;;;5.35;;
24407;SDS011;12542;50.924;4.516;2022-10-04T18:03:36;11.65;;;4.30;;
24407;SDS011;12542;50.924;4.516;2022-10-04T18:09:04;9.35;;;4.90;;
24407;SDS011;12542;50.924;4.516;2022-10-04T18:15:03;13.20;;;5.20;;
24407;SDS011;12542;50.924;4.516;2022-10-04T18:17:36;9.85;;;5.18;;
24407;SDS011;12542;50.924;4.516;2022-10-04T18:22:48;9.95;;;5.55;;
24407;SDS011;12542;50.924;4.516;2022-10-04T18:25:19;8.35;;;5.03;;
24407;SDS011;12542;50.924;4.516;2022-10-04T18:27:48;9.18;;;4.72;;
24407;SDS011;12542;50.924;4.516;2022-10-04T18:33:22;10.75;;;6.10;;
24407;SDS011;12542;50.924;4.516;2022-10-04T18:35:59;9.13;;;5.32;;
24407;SDS011;12542;50.924;4.516;2022-10-04T18:38:30;9.20;;;5.25;;
24407;SDS011;12542;50.924;4.516;2022-10-04T18:40:59;11.50;;;5.15;;
24407;SDS011;12542;50.924;4.516;2022-10-04T18:43:41;10.10;;;5.45;;
24407;SDS011;12542;50.924;4.516;2022-10-04T18:46:20;13.35;;;6.00;;
24407;SDS011;12542;50.924;4.516;2022-10-04T18:54:00;14.70;;;5.78;;
24407;SDS011;12542;50.924;4.516;2022-10-04T18:56:40;13.32;;;5.97;;
24407;SDS011;12542;50.924;4.516;2022-10-04T19:15:51;10.13;;;6.00;;
24407;SDS011;12542;50.924;4.516;2022-10-04T19:18:29;11.05;;;5.80;;
24407;SDS011;12542;50.924;4.516;2022-10-04T19:21:25;12.30;;;5.25;;
24407;SDS011;12542;50.924;4.516;2022-10-04T19:27:00;9.00;;;5.10;;
24407;SDS011;12542;50.924;4.516;2022-10-04T19:35:11;12.23;;;5.70;;
24407;SDS011;12542;50.924;4.516;2022-10-04T19:37:50;14.80;;;6.20;;
24407;SDS011;12542;50.924;4.516;2022-10-04T19:41:18;13.32;;;6.18;;
24407;SDS011;12542;50.924;4.516;2022-10-04T19:48:52;12.82;;;6.50;;
24407;SDS011;12542;50.924;4.516;2022-10-04T19:51:27;12.82;;;5.82;;
24407;SDS011;12542;50.924;4.516;2022-10-04T19:54:11;9.38;;;5.47;;
24407;SDS011;12542;50.924;4.516;2022-10-04T19:56:45;9.48;;;5.40;;
24407;SDS011;12542;50.924;4.516;2022-10-04T19:59:16;10.40;;;6.03;;
24407;SDS011;12542;50.924;4.516;2022-10-04T20:01:47;14.45;;;5.35;;
24407;SDS011;12542;50.924;4.516;2022-10-04T20:04:16;10.77;;;5.47;;
24407;SDS011;12542;50.924;4.516;2022-10-04T20:07:04;7.97;;;4.90;;
24407;SDS011;12542;50.924;4.516;2022-10-04T20:10:34;9.30;;;5.25;;
24407;SDS011;12542;50.924;4.516;2022-10-04T20:13:12;12.88;;;5.07;;
24407;SDS011;12542;50.924;4.516;2022-10-04T20:15:49;8.35;;;5.05;;
24407;SDS011;12542;50.924;4.516;2022-10-04T20:26:13;14.43;;;5.13;;
24407;SDS011;12542;50.924;4.516;2022-10-04T20:34:51;8.95;;;4.68;;
24407;SDS011;12542;50.924;4.516;2022-10-04T20:37:17;10.35;;;5.05;;
24407;SDS011;12542;50.924;4.516;2022-10-04T20:45:00;6.68;;;4.43;;
24407;SDS011;12542;50.924;4.516;2022-10-04T20:50:06;10.02;;;4.47;;
24407;SDS011;12542;50.924;4.516;2022-10-04T20:52:43;7.78;;;4.28;;
24407;SDS011;12542;50.924;4.516;2022-10-04T20:55:30;8.48;;;4.50;;
24407;SDS011;12542;50.924;4.516;2022-10-04T20:58:03;8.25;;;4.68;;
24407;SDS011;12542;50.924;4.516;2022-10-04T21:00:52;7.65;;;4.60;;
24407;SDS011;12542;50.924;4.516;2022-10-04T21:03:20;6.35;;;4.32;;
24407;SDS011;12542;50.924;4.516;2022-10-04T21:08:45;9.27;;;4.30;;
24407;SDS011;12542;50.924;4.516;2022-10-04T21:11:18;8.25;;;3.92;;
24407;SDS011;12542;50.924;4.516;2022-10-04T21:16:32;7.78;;;4.43;;
24407;SDS011;12542;50.924;4.516;2022-10-04T21:29:52;10.10;;;4.93;;
24407;SDS011;12542;50.924;4.516;2022-10-04T21:32:24;10.23;;;5.45;;
24407;SDS011;12542;50.924;4.516;2022-10-04T21:34:50;9.27;;;5.05;;
24407;SDS011;12542;50.924;4.516;2022-10-04T21:37:17;6.65;;;4.18;;
24407;SDS011;12542;50.924;4.516;2022-10-04T21:39:44;9.38;;;4.80;;
24407;SDS011;12542;50.924;4.516;2022-10-04T21:42:10;8.63;;;5.15;;
24407;SDS011;12542;50.924;4.516;2022-10-04T21:44:36;9.73;;;5.25;;
24407;SDS011;12542;50.924;4.516;2022-10-04T21:47:02;10.25;;;5.20;;
24407;SDS011;12542;50.924;4.516;2022-10-04T21:49:28;8.95;;;5.10;;
24407;SDS011;12542;50.924;4.516;2022-10-04T21:51:53;11.40;;;4.82;;
24407;SDS011;12542;50.924;4.516;2022-10-04T21:54:19;10.75;;;4.80;;
24407;SDS011;12542;50.924;4.516;2022-10-04T21:56:45;7.20;;;4.57;;
24407;SDS011;12542;50.924;4.516;2022-10-04T21:59:10;9.25;;;4.55;;
24407;SDS011;12542;50.924;4.516;2022-10-04T22:01:36;11.02;;;4.55;;
24407;SDS011;12542;50.924;4.516;2022-10-04T22:04:02;10.15;;;4.13;;
24407;SDS011;12542;50.924;4.516;2022-10-04T22:06:28;6.53;;;4.78;;
24407;SDS011;12542;50.924;4.516;2022-10-04T22:08:54;9.20;;;4.28;;
24407;SDS011;12542;50.924;4.516;2022-10-04T22:11:20;8.25;;;4.40;;
24407;SDS011;12542;50.924;4.516;2022-10-04T22:13:46;7.03;;;4.20;;
24407;SDS011;12542;50.924;4.516;2022-10-04T22:16:12;8.40;;;4.88;;
24407;SDS011;12542;50.924;4.516;2022-10-04T22:18:38;7.57;;;4.35;;
24407;SDS011;12542;50.924;4.516;2022-10-04T22:21:04;6.28;;;4.03;;
24407;SDS011;12542;50.924;4.516;2022-10-04T22:23:30;7.70;;;4.00;;
24407;SDS011;12542;50.924;4.516;2022-10-04T22:26:10;9.27;;;3.80;;
24407;SDS011;12542;50.924;4.516;2022-10-04T22:28:40;8.80;;;4.25;;
24407;SDS011;12542;50.924;4.516;2022-10-04T22:31:09;9.18;;;4.57;;
24407;SDS011;12542;50.924;4.516;2022-10-04T22:33:37;7.28;;;4.15;;
24407;SDS011;12542;50.924;4.516;2022-10-04T22:38:47;11.25;;;4.63;;
24407;SDS011;12542;50.924;4.516;2022-10-04T22:41:17;6.55;;;4.20;;
24407;SDS011;12542;50.924;4.516;2022-10-04T22:43:45;9.02;;;4.63;;
24407;SDS011;12542;50.924;4.516;2022-10-04T22:46:15;7.78;;;4.40;;
24407;SDS011;12542;50.924;4.516;2022-10-04T22:48:45;9.50;;;4.40;;
24407;SDS011;12542;50.924;4.516;2022-10-04T22:51:13;7.25;;;4.82;;
24407;SDS011;12542;50.924;4.516;2022-10-04T22:53:43;7.90;;;4.63;;
24407;SDS011;12542;50.924;4.516;2022-10-04T22:56:11;6.82;;;4.55;;
24407;SDS011;12542;50.924;4.516;2022-10-04T22:58:38;6.32;;;4.40;;
24407;SDS011;12542;50.924;4.516;2022-10-04T23:01:11;10.32;;;4.93;;
24407;SDS011;12542;50.924;4.516;2022-10-04T23:03:39;11.63;;;4.60;;
24407;SDS011;12542;50.924;4.516;2022-10-04T23:06:09;8.35;;;4.82;;
24407;SDS011;12542;50.924;4.516;2022-10-04T23:08:38;9.88;;;4.25;;
24407;SDS011;12542;50.924;4.516;2022-10-04T23:11:05;7.97;;;4.43;;
24407;SDS011;12542;50.924;4.516;2022-10-04T23:13:30;7.45;;;4.53;;
24407;SDS011;12542;50.924;4.516;2022-10-04T23:15:57;12.68;;;4.90;;
24407;SDS011;12542;50.924;4.516;2022-10-04T23:18:26;8.82;;;4.20;;
24407;SDS011;12542;50.924;4.516;2022-10-04T23:20:55;12.00;;;4.70;;
24407;SDS011;12542;50.924;4.516;2022-10-04T23:23:23;7.18;;;4.20;;
24407;SDS011;12542;50.924;4.516;2022-10-04T23:25:52;8.65;;;3.90;;
24407;SDS011;12542;50.924;4.516;2022-10-04T23:28:18;7.75;;;4.07;;
24407;SDS011;12542;50.924;4.516;2022-10-04T23:30:58;7.80;;;4.15;;
24407;SDS011;12542;50.924;4.516;2022-10-04T23:33:29;7.87;;;4.30;;
24407;SDS011;12542;50.924;4.516;2022-10-04T23:35:55;7.43;;;4.20;;
24407;SDS011;12542;50.924;4.516;2022-10-04T23:38:21;5.57;;;3.95;;
24407;SDS011;12542;50.924;4.516;2022-10-04T23:40:48;6.85;;;4.05;;
24407;SDS011;12542;50.924;4.516;2022-10-04T23:43:17;8.25;;;4.35;;
24407;SDS011;12542;50.924;4.516;2022-10-04T23:45:48;7.00;;;4.32;;
24407;SDS011;12542;50.924;4.516;2022-10-04T23:48:16;6.30;;;3.92;;
24407;SDS011;12542;50.924;4.516;2022-10-04T23:50:56;7.10;;;4.35;;
24407;SDS011;12542;50.924;4.516;2022-10-04T23:53:27;7.43;;;3.85;;
24407;SDS011;12542;50.924;4.516;2022-10-04T23:56:01;7.65;;;4.25;;
24407;SDS011;12542;50.924;4.516;2022-10-04T23:58:32;8.80;;;4.03;;
